sensor_id;sensor_type;location;lat;lon;timestamp;temperature;humidity
12720;DHT22;6424;48.520;11.228;2022-09-16T00:00:59;11.50;99.90
12720;DHT22;6424;48.520;11.228;2022-09-16T00:03:40;11.50;99.90
12720;DHT22;6424;48.520;11.228;2022-09-16T00:06:23;11.40;99.90
12720;DHT22;6424;48.520;11.228;2022-09-16T00:09:04;11.40;99.90
12720;DHT22;6424;48.520;11.228;2022-09-16T00:11:45;11.40;99.90
12720;DHT22;6424;48.520;11.228;2022-09-16T00:14:25;11.30;99.90
12720;DHT22;6424;48.520;11.228;2022-09-16T00:16:54;11.30;99.90
12720;DHT22;6424;48.520;11.228;2022-09-16T00:19:35;11.30;99.90
12720;DHT22;6424;48.520;11.228;2022-09-16T00:22:17;11.30;99.90
12720;DHT22;6424;48.520;11.228;2022-09-16T00:24:42;11.30;99.90
12720;DHT22;6424;48.520;11.228;2022-09-16T00:27:23;11.30;99.90
12720;DHT22;6424;48.520;11.228;2022-09-16T00:30:04;11.30;99.90
12720;DHT22;6424;48.520;11.228;2022-09-16T00:32:30;11.30;99.90
12720;DHT22;6424;48.520;11.228;2022-09-16T00:35:11;11.30;99.90
12720;DHT22;6424;48.520;11.228;2022-09-16T00:37:52;11.30;99.90
12720;DHT22;6424;48.520;11.228;2022-09-16T00:40:33;11.40;99.90
12720;DHT22;6424;48.520;11.228;2022-09-16T00:42:59;11.40;99.90
12720;DHT22;6424;48.520;11.228;2022-09-16T00:45:41;11.50;99.90
12720;DHT22;6424;48.520;11.228;2022-09-16T00:48:25;11.50;99.90
12720;DHT22;6424;48.520;11.228;2022-09-16T00:51:08;11.50;99.90
12720;DHT22;6424;48.520;11.228;2022-09-16T00:53:56;11.50;99.90
12720;DHT22;6424;48.520;11.228;2022-09-16T00:56:42;11.50;99.90
12720;DHT22;6424;48.520;11.228;2022-09-16T00:59:30;11.50;99.90
12720;DHT22;6424;48.520;11.228;2022-09-16T01:02:15;11.60;99.90
12720;DHT22;6424;48.520;11.228;2022-09-16T01:05:03;11.60;99.90
12720;DHT22;6424;48.520;11.228;2022-09-16T01:07:50;11.60;99.90
12720;DHT22;6424;48.520;11.228;2022-09-16T01:10:31;11.70;99.90
12720;DHT22;6424;48.520;11.228;2022-09-16T01:13:13;11.70;99.90
12720;DHT22;6424;48.520;11.228;2022-09-16T01:16:09;11.70;99.90
12720;DHT22;6424;48.520;11.228;2022-09-16T01:19:36;11.70;99.90
12720;DHT22;6424;48.520;11.228;2022-09-16T01:21:47;11.70;99.90
12720;DHT22;6424;48.520;11.228;2022-09-16T01:33:03;11.80;99.90
12720;DHT22;6424;48.520;11.228;2022-09-16T01:44:27;11.90;99.90
12720;DHT22;6424;48.520;11.228;2022-09-16T01:47:50;11.80;99.90
12720;DHT22;6424;48.520;11.228;2022-09-16T01:50:35;11.80;99.90
12720;DHT22;6424;48.520;11.228;2022-09-16T01:53:44;11.80;99.90
12720;DHT22;6424;48.520;11.228;2022-09-16T01:56:31;11.80;99.90
12720;DHT22;6424;48.520;11.228;2022-09-16T02:02:45;11.80;99.90
12720;DHT22;6424;48.520;11.228;2022-09-16T02:05:50;11.80;99.90
12720;DHT22;6424;48.520;11.228;2022-09-16T02:08:49;11.80;99.90
12720;DHT22;6424;48.520;11.228;2022-09-16T02:11:31;11.70;99.90
12720;DHT22;6424;48.520;11.228;2022-09-16T02:14:15;11.80;99.90
12720;DHT22;6424;48.520;11.228;2022-09-16T02:17:02;11.70;99.90
12720;DHT22;6424;48.520;11.228;2022-09-16T02:19:53;11.80;99.90
12720;DHT22;6424;48.520;11.228;2022-09-16T02:22:43;11.80;99.90
12720;DHT22;6424;48.520;11.228;2022-09-16T02:25:27;11.80;99.90
12720;DHT22;6424;48.520;11.228;2022-09-16T02:28:15;11.80;99.90
12720;DHT22;6424;48.520;11.228;2022-09-16T02:31:02;11.80;99.90
12720;DHT22;6424;48.520;11.228;2022-09-16T02:33:55;11.80;99.90
12720;DHT22;6424;48.520;11.228;2022-09-16T02:36:39;11.80;99.90
12720;DHT22;6424;48.520;11.228;2022-09-16T02:39:28;11.80;99.90
12720;DHT22;6424;48.520;11.228;2022-09-16T02:42:10;11.80;99.90
12720;DHT22;6424;48.520;11.228;2022-09-16T02:44:51;11.80;99.90
12720;DHT22;6424;48.520;11.228;2022-09-16T02:53:39;11.70;99.90
12720;DHT22;6424;48.520;11.228;2022-09-16T02:56:29;11.70;99.90
12720;DHT22;6424;48.520;11.228;2022-09-16T02:59:12;11.70;99.90
12720;DHT22;6424;48.520;11.228;2022-09-16T03:01:54;11.60;99.90
12720;DHT22;6424;48.520;11.228;2022-09-16T03:04:34;11.60;99.90
12720;DHT22;6424;48.520;11.228;2022-09-16T03:07:16;11.60;99.90
12720;DHT22;6424;48.520;11.228;2022-09-16T03:09:57;11.60;99.90
12720;DHT22;6424;48.520;11.228;2022-09-16T03:15:57;11.50;99.90
12720;DHT22;6424;48.520;11.228;2022-09-16T03:22:17;11.50;99.90
12720;DHT22;6424;48.520;11.228;2022-09-16T03:28:24;11.50;99.90
12720;DHT22;6424;48.520;11.228;2022-09-16T03:31:09;11.50;99.90
12720;DHT22;6424;48.520;11.228;2022-09-16T03:36:53;11.50;99.90
12720;DHT22;6424;48.520;11.228;2022-09-16T03:39:37;11.50;99.90
12720;DHT22;6424;48.520;11.228;2022-09-16T03:42:05;11.60;99.90
12720;DHT22;6424;48.520;11.228;2022-09-16T03:44:50;11.60;99.90
12720;DHT22;6424;48.520;11.228;2022-09-16T03:47:31;11.60;99.90
12720;DHT22;6424;48.520;11.228;2022-09-16T03:50:12;11.60;99.90
12720;DHT22;6424;48.520;11.228;2022-09-16T03:52:53;11.60;99.90
12720;DHT22;6424;48.520;11.228;2022-09-16T03:55:34;11.60;99.90
12720;DHT22;6424;48.520;11.228;2022-09-16T03:58:00;11.50;99.90
12720;DHT22;6424;48.520;11.228;2022-09-16T04:00:41;11.60;99.90
12720;DHT22;6424;48.520;11.228;2022-09-16T04:03:22;11.60;99.90
12720;DHT22;6424;48.520;11.228;2022-09-16T04:05:54;11.60;99.90
12720;DHT22;6424;48.520;11.228;2022-09-16T04:08:21;11.60;99.90
12720;DHT22;6424;48.520;11.228;2022-09-16T04:11:04;11.60;99.90
12720;DHT22;6424;48.520;11.228;2022-09-16T04:13:45;11.70;99.90
12720;DHT22;6424;48.520;11.228;2022-09-16T04:16:11;11.70;99.90
12720;DHT22;6424;48.520;11.228;2022-09-16T04:18:51;11.70;99.90
12720;DHT22;6424;48.520;11.228;2022-09-16T04:21:32;11.70;99.90
12720;DHT22;6424;48.520;11.228;2022-09-16T04:24:13;11.80;99.90
12720;DHT22;6424;48.520;11.228;2022-09-16T04:26:54;11.80;99.90
12720;DHT22;6424;48.520;11.228;2022-09-16T04:29:35;11.80;99.90
12720;DHT22;6424;48.520;11.228;2022-09-16T04:32:16;11.80;99.90
12720;DHT22;6424;48.520;11.228;2022-09-16T04:34:42;11.80;99.90
12720;DHT22;6424;48.520;11.228;2022-09-16T04:37:22;11.80;99.90
12720;DHT22;6424;48.520;11.228;2022-09-16T04:40:03;11.80;99.90
12720;DHT22;6424;48.520;11.228;2022-09-16T04:42:49;11.80;99.90
12720;DHT22;6424;48.520;11.228;2022-09-16T04:45:29;11.90;99.90
12720;DHT22;6424;48.520;11.228;2022-09-16T04:48:10;11.90;99.90
12720;DHT22;6424;48.520;11.228;2022-09-16T04:50:52;11.90;99.90
12720;DHT22;6424;48.520;11.228;2022-09-16T04:53:33;11.90;99.90
12720;DHT22;6424;48.520;11.228;2022-09-16T04:56:18;11.90;99.90
12720;DHT22;6424;48.520;11.228;2022-09-16T04:59:00;11.90;99.90
12720;DHT22;6424;48.520;11.228;2022-09-16T05:01:42;11.90;99.90
12720;DHT22;6424;48.520;11.228;2022-09-16T05:04:23;11.90;99.90
12720;DHT22;6424;48.520;11.228;2022-09-16T05:07:04;11.90;99.90
12720;DHT22;6424;48.520;11.228;2022-09-16T05:09:44;12.00;99.90
12720;DHT22;6424;48.520;11.228;2022-09-16T05:12:10;12.00;99.90
12720;DHT22;6424;48.520;11.228;2022-09-16T05:14:52;12.00;99.90
12720;DHT22;6424;48.520;11.228;2022-09-16T05:17:32;12.00;99.90
12720;DHT22;6424;48.520;11.228;2022-09-16T05:20:13;12.00;99.90
12720;DHT22;6424;48.520;11.228;2022-09-16T05:22:54;12.00;99.90
12720;DHT22;6424;48.520;11.228;2022-09-16T05:25:20;12.00;99.90
12720;DHT22;6424;48.520;11.228;2022-09-16T05:28:01;12.00;99.90
12720;DHT22;6424;48.520;11.228;2022-09-16T05:30:41;12.00;99.90
12720;DHT22;6424;48.520;11.228;2022-09-16T05:33:22;12.10;99.90
12720;DHT22;6424;48.520;11.228;2022-09-16T05:36:13;12.10;99.90
12720;DHT22;6424;48.520;11.228;2022-09-16T05:38:54;12.00;99.90
12720;DHT22;6424;48.520;11.228;2022-09-16T05:41:36;12.10;99.90
12720;DHT22;6424;48.520;11.228;2022-09-16T05:44:17;12.10;99.90
12720;DHT22;6424;48.520;11.228;2022-09-16T05:46:43;12.20;99.90
12720;DHT22;6424;48.520;11.228;2022-09-16T05:49:23;12.20;99.90
12720;DHT22;6424;48.520;11.228;2022-09-16T05:52:05;12.30;99.90
12720;DHT22;6424;48.520;11.228;2022-09-16T05:54:45;12.40;99.90
12720;DHT22;6424;48.520;11.228;2022-09-16T05:57:26;12.40;99.90
12720;DHT22;6424;48.520;11.228;2022-09-16T06:00:07;12.50;99.90
12720;DHT22;6424;48.520;11.228;2022-09-16T06:02:33;12.60;99.90
12720;DHT22;6424;48.520;11.228;2022-09-16T06:05:14;12.70;99.90
12720;DHT22;6424;48.520;11.228;2022-09-16T06:07:55;12.70;99.90
12720;DHT22;6424;48.520;11.228;2022-09-16T06:10:40;12.80;99.90
12720;DHT22;6424;48.520;11.228;2022-09-16T06:13:21;12.90;99.90
12720;DHT22;6424;48.520;11.228;2022-09-16T06:16:03;13.10;99.90
12720;DHT22;6424;48.520;11.228;2022-09-16T06:18:44;13.30;99.90
12720;DHT22;6424;48.520;11.228;2022-09-16T06:21:10;13.60;99.90
12720;DHT22;6424;48.520;11.228;2022-09-16T06:23:51;13.80;99.90
12720;DHT22;6424;48.520;11.228;2022-09-16T06:26:33;13.80;99.90
12720;DHT22;6424;48.520;11.228;2022-09-16T06:29:14;13.70;99.90
12720;DHT22;6424;48.520;11.228;2022-09-16T06:31:56;13.60;99.90
12720;DHT22;6424;48.520;11.228;2022-09-16T06:34:36;13.50;99.90
12720;DHT22;6424;48.520;11.228;2022-09-16T06:37:17;13.40;99.90
12720;DHT22;6424;48.520;11.228;2022-09-16T06:39:44;13.30;99.90
12720;DHT22;6424;48.520;11.228;2022-09-16T06:42:24;13.20;99.90
12720;DHT22;6424;48.520;11.228;2022-09-16T06:45:05;13.20;99.90
12720;DHT22;6424;48.520;11.228;2022-09-16T06:47:46;13.20;99.90
12720;DHT22;6424;48.520;11.228;2022-09-16T06:50:12;13.20;99.90
12720;DHT22;6424;48.520;11.228;2022-09-16T06:52:53;13.30;99.90
12720;DHT22;6424;48.520;11.228;2022-09-16T06:55:34;13.20;99.90
12720;DHT22;6424;48.520;11.228;2022-09-16T06:58:15;13.30;99.90
12720;DHT22;6424;48.520;11.228;2022-09-16T07:00:56;13.20;99.90
12720;DHT22;6424;48.520;11.228;2022-09-16T07:03:39;13.10;99.90
12720;DHT22;6424;48.520;11.228;2022-09-16T07:06:22;13.10;99.90
12720;DHT22;6424;48.520;11.228;2022-09-16T07:09:04;13.10;99.90
12720;DHT22;6424;48.520;11.228;2022-09-16T07:11:45;13.10;99.90
12720;DHT22;6424;48.520;11.228;2022-09-16T07:14:27;13.20;99.90
12720;DHT22;6424;48.520;11.228;2022-09-16T07:16:53;13.20;99.90
12720;DHT22;6424;48.520;11.228;2022-09-16T07:19:34;13.20;99.90
12720;DHT22;6424;48.520;11.228;2022-09-16T07:22:15;13.20;99.90
12720;DHT22;6424;48.520;11.228;2022-09-16T07:24:56;13.20;99.90
12720;DHT22;6424;48.520;11.228;2022-09-16T07:27:37;13.30;99.90
12720;DHT22;6424;48.520;11.228;2022-09-16T07:30:18;13.30;99.90
12720;DHT22;6424;48.520;11.228;2022-09-16T07:32:59;13.30;99.90
12720;DHT22;6424;48.520;11.228;2022-09-16T07:35:25;13.30;99.90
12720;DHT22;6424;48.520;11.228;2022-09-16T07:38:06;13.30;99.90
12720;DHT22;6424;48.520;11.228;2022-09-16T07:40:47;13.40;99.90
12720;DHT22;6424;48.520;11.228;2022-09-16T07:43:28;13.40;99.90
12720;DHT22;6424;48.520;11.228;2022-09-16T07:46:11;13.50;99.90
12720;DHT22;6424;48.520;11.228;2022-09-16T07:48:52;13.50;99.90
12720;DHT22;6424;48.520;11.228;2022-09-16T07:51:34;13.60;99.90
12720;DHT22;6424;48.520;11.228;2022-09-16T07:54:16;13.60;99.90
12720;DHT22;6424;48.520;11.228;2022-09-16T07:56:43;13.70;99.90
12720;DHT22;6424;48.520;11.228;2022-09-16T07:59:24;13.70;99.90
12720;DHT22;6424;48.520;11.228;2022-09-16T08:02:05;13.80;99.90
12720;DHT22;6424;48.520;11.228;2022-09-16T08:04:46;13.80;99.90
12720;DHT22;6424;48.520;11.228;2022-09-16T08:07:12;13.80;99.90
12720;DHT22;6424;48.520;11.228;2022-09-16T08:09:53;13.90;99.90
12720;DHT22;6424;48.520;11.228;2022-09-16T08:12:34;13.90;99.90
12720;DHT22;6424;48.520;11.228;2022-09-16T08:15:15;13.90;99.90
12720;DHT22;6424;48.520;11.228;2022-09-16T08:17:56;14.00;99.90
12720;DHT22;6424;48.520;11.228;2022-09-16T08:20:36;14.00;99.90
12720;DHT22;6424;48.520;11.228;2022-09-16T08:23:17;14.10;99.90
12720;DHT22;6424;48.520;11.228;2022-09-16T08:25:59;14.20;99.90
12720;DHT22;6424;48.520;11.228;2022-09-16T08:28:41;14.30;99.90
12720;DHT22;6424;48.520;11.228;2022-09-16T08:31:22;14.40;99.90
12720;DHT22;6424;48.520;11.228;2022-09-16T08:34:03;14.30;99.90
12720;DHT22;6424;48.520;11.228;2022-09-16T08:36:44;14.30;99.90
12720;DHT22;6424;48.520;11.228;2022-09-16T08:39:25;14.10;99.90
12720;DHT22;6424;48.520;11.228;2022-09-16T08:50:45;13.60;99.90
12720;DHT22;6424;48.520;11.228;2022-09-16T08:56:10;13.40;99.90
12720;DHT22;6424;48.520;11.228;2022-09-16T08:58:54;13.30;99.90
12720;DHT22;6424;48.520;11.228;2022-09-16T09:04:04;13.00;99.90
12720;DHT22;6424;48.520;11.228;2022-09-16T09:06:57;12.80;99.90
12720;DHT22;6424;48.520;11.228;2022-09-16T09:12:39;12.70;99.90
12720;DHT22;6424;48.520;11.228;2022-09-16T09:27:26;12.50;99.90
12720;DHT22;6424;48.520;11.228;2022-09-16T09:30:23;12.50;99.90
12720;DHT22;6424;48.520;11.228;2022-09-16T09:33:16;12.50;99.90
12720;DHT22;6424;48.520;11.228;2022-09-16T09:45:03;12.40;99.90
12720;DHT22;6424;48.520;11.228;2022-09-16T09:48:03;12.40;99.90
12720;DHT22;6424;48.520;11.228;2022-09-16T09:50:47;12.40;99.90
12720;DHT22;6424;48.520;11.228;2022-09-16T09:53:35;12.40;99.90
12720;DHT22;6424;48.520;11.228;2022-09-16T09:56:39;12.30;99.90
12720;DHT22;6424;48.520;11.228;2022-09-16T10:02:50;12.10;99.90
12720;DHT22;6424;48.520;11.228;2022-09-16T10:05:31;12.00;99.90
12720;DHT22;6424;48.520;11.228;2022-09-16T10:08:03;11.90;99.90
12720;DHT22;6424;48.520;11.228;2022-09-16T10:10:54;11.80;99.90
12720;DHT22;6424;48.520;11.228;2022-09-16T10:13:35;11.70;99.90
12720;DHT22;6424;48.520;11.228;2022-09-16T10:16:33;11.70;99.90
12720;DHT22;6424;48.520;11.228;2022-09-16T10:19:24;11.60;99.90
12720;DHT22;6424;48.520;11.228;2022-09-16T10:22:15;11.50;99.90
12720;DHT22;6424;48.520;11.228;2022-09-16T10:25:06;11.30;99.90
12720;DHT22;6424;48.520;11.228;2022-09-16T10:28:03;11.20;99.90
12720;DHT22;6424;48.520;11.228;2022-09-16T10:30:47;11.00;99.90
12720;DHT22;6424;48.520;11.228;2022-09-16T10:33:34;11.00;99.90
12720;DHT22;6424;48.520;11.228;2022-09-16T10:36:23;11.10;99.90
12720;DHT22;6424;48.520;11.228;2022-09-16T10:39:23;11.20;99.90
12720;DHT22;6424;48.520;11.228;2022-09-16T10:41:49;11.20;99.90
12720;DHT22;6424;48.520;11.228;2022-09-16T10:44:32;11.20;99.90
12720;DHT22;6424;48.520;11.228;2022-09-16T10:47:25;11.30;99.90
12720;DHT22;6424;48.520;11.228;2022-09-16T10:50:14;11.50;99.90
12720;DHT22;6424;48.520;11.228;2022-09-16T10:52:55;11.50;99.90
12720;DHT22;6424;48.520;11.228;2022-09-16T10:55:36;11.50;99.90
12720;DHT22;6424;48.520;11.228;2022-09-16T10:58:18;11.40;99.90
12720;DHT22;6424;48.520;11.228;2022-09-16T11:01:12;11.50;99.90
12720;DHT22;6424;48.520;11.228;2022-09-16T11:04:08;11.60;99.90
12720;DHT22;6424;48.520;11.228;2022-09-16T11:06:55;11.70;99.90
12720;DHT22;6424;48.520;11.228;2022-09-16T11:12:51;11.80;99.90
12720;DHT22;6424;48.520;11.228;2022-09-16T11:15:59;11.90;99.90
12720;DHT22;6424;48.520;11.228;2022-09-16T11:19:06;11.90;99.90
12720;DHT22;6424;48.520;11.228;2022-09-16T11:25:29;12.00;99.90
12720;DHT22;6424;48.520;11.228;2022-09-16T12:01:36;12.40;99.90
12720;DHT22;6424;48.520;11.228;2022-09-16T12:04:34;12.50;99.90
12720;DHT22;6424;48.520;11.228;2022-09-16T12:09:58;12.50;99.90
12720;DHT22;6424;48.520;11.228;2022-09-16T12:12:59;12.50;99.90
12720;DHT22;6424;48.520;11.228;2022-09-16T12:15:53;12.50;99.90
12720;DHT22;6424;48.520;11.228;2022-09-16T12:18:46;12.60;99.90
12720;DHT22;6424;48.520;11.228;2022-09-16T12:21:51;12.60;99.90
12720;DHT22;6424;48.520;11.228;2022-09-16T12:24:42;12.60;99.90
12720;DHT22;6424;48.520;11.228;2022-09-16T12:30:36;12.60;99.90
12720;DHT22;6424;48.520;11.228;2022-09-16T12:33:30;12.60;99.90
12720;DHT22;6424;48.520;11.228;2022-09-16T12:36:17;12.60;99.90
12720;DHT22;6424;48.520;11.228;2022-09-16T12:39:00;12.70;99.90
12720;DHT22;6424;48.520;11.228;2022-09-16T12:59:37;13.30;99.90
12720;DHT22;6424;48.520;11.228;2022-09-16T13:02:26;13.30;99.90
12720;DHT22;6424;48.520;11.228;2022-09-16T13:05:31;13.20;99.90
12720;DHT22;6424;48.520;11.228;2022-09-16T13:08:25;13.10;99.90
12720;DHT22;6424;48.520;11.228;2022-09-16T13:11:36;13.00;99.90
12720;DHT22;6424;48.520;11.228;2022-09-16T13:14:22;13.00;99.90
12720;DHT22;6424;48.520;11.228;2022-09-16T13:17:03;13.00;99.90
12720;DHT22;6424;48.520;11.228;2022-09-16T13:19:48;13.10;99.90
12720;DHT22;6424;48.520;11.228;2022-09-16T13:25:33;13.40;99.90
12720;DHT22;6424;48.520;11.228;2022-09-16T13:28:40;13.40;99.90
12720;DHT22;6424;48.520;11.228;2022-09-16T13:31:29;13.50;99.90
12720;DHT22;6424;48.520;11.228;2022-09-16T13:34:15;13.60;99.90
12720;DHT22;6424;48.520;11.228;2022-09-16T13:36:56;13.70;99.90
12720;DHT22;6424;48.520;11.228;2022-09-16T13:39:38;13.80;99.90
12720;DHT22;6424;48.520;11.228;2022-09-16T13:42:20;13.70;99.90
12720;DHT22;6424;48.520;11.228;2022-09-16T13:45:00;13.70;99.90
12720;DHT22;6424;48.520;11.228;2022-09-16T13:47:31;13.80;99.90
12720;DHT22;6424;48.520;11.228;2022-09-16T13:50:18;13.80;99.90
12720;DHT22;6424;48.520;11.228;2022-09-16T13:53:31;13.80;99.90
12720;DHT22;6424;48.520;11.228;2022-09-16T14:04:36;13.60;99.90
12720;DHT22;6424;48.520;11.228;2022-09-16T14:13:20;13.30;99.90
12720;DHT22;6424;48.520;11.228;2022-09-16T14:16:01;13.20;99.90
12720;DHT22;6424;48.520;11.228;2022-09-16T14:19:00;13.10;99.90
12720;DHT22;6424;48.520;11.228;2022-09-16T14:21:43;13.00;99.90
12720;DHT22;6424;48.520;11.228;2022-09-16T14:24:24;13.00;99.90
12720;DHT22;6424;48.520;11.228;2022-09-16T14:27:18;12.90;99.90
12720;DHT22;6424;48.520;11.228;2022-09-16T14:30:01;12.90;99.90
12720;DHT22;6424;48.520;11.228;2022-09-16T14:32:42;12.80;99.90
12720;DHT22;6424;48.520;11.228;2022-09-16T14:35:14;12.80;99.90
12720;DHT22;6424;48.520;11.228;2022-09-16T14:38:01;12.80;99.90
12720;DHT22;6424;48.520;11.228;2022-09-16T14:40:28;12.80;99.90
12720;DHT22;6424;48.520;11.228;2022-09-16T14:43:15;12.80;99.90
12720;DHT22;6424;48.520;11.228;2022-09-16T14:45:57;12.80;99.90
12720;DHT22;6424;48.520;11.228;2022-09-16T14:48:41;12.80;99.90
12720;DHT22;6424;48.520;11.228;2022-09-16T14:51:24;12.80;99.90
12720;DHT22;6424;48.520;11.228;2022-09-16T14:54:17;12.90;99.90
12720;DHT22;6424;48.520;11.228;2022-09-16T14:57:01;12.90;99.90
12720;DHT22;6424;48.520;11.228;2022-09-16T14:59:42;12.90;99.90
12720;DHT22;6424;48.520;11.228;2022-09-16T15:02:32;12.90;99.90
12720;DHT22;6424;48.520;11.228;2022-09-16T15:05:36;12.90;99.90
12720;DHT22;6424;48.520;11.228;2022-09-16T15:08:29;12.90;99.90
12720;DHT22;6424;48.520;11.228;2022-09-16T15:11:32;12.80;99.90
12720;DHT22;6424;48.520;11.228;2022-09-16T15:14:14;12.80;99.90
12720;DHT22;6424;48.520;11.228;2022-09-16T15:16:59;12.90;99.90
12720;DHT22;6424;48.520;11.228;2022-09-16T15:19:41;12.80;99.90
12720;DHT22;6424;48.520;11.228;2022-09-16T15:22:22;12.80;99.90
12720;DHT22;6424;48.520;11.228;2022-09-16T15:25:03;12.80;99.90
12720;DHT22;6424;48.520;11.228;2022-09-16T15:27:44;12.80;99.90
12720;DHT22;6424;48.520;11.228;2022-09-16T15:30:29;12.90;99.90
12720;DHT22;6424;48.520;11.228;2022-09-16T15:33:32;13.00;99.90
12720;DHT22;6424;48.520;11.228;2022-09-16T15:36:38;13.10;99.90
12720;DHT22;6424;48.520;11.228;2022-09-16T15:39:30;13.30;99.90
12720;DHT22;6424;48.520;11.228;2022-09-16T15:45:02;13.40;99.90
12720;DHT22;6424;48.520;11.228;2022-09-16T15:50:37;13.40;99.90
12720;DHT22;6424;48.520;11.228;2022-09-16T15:53:21;13.50;99.90
12720;DHT22;6424;48.520;11.228;2022-09-16T15:56:05;13.40;99.90
12720;DHT22;6424;48.520;11.228;2022-09-16T15:58:48;13.30;99.90
12720;DHT22;6424;48.520;11.228;2022-09-16T16:01:35;13.20;99.90
12720;DHT22;6424;48.520;11.228;2022-09-16T16:04:26;13.00;99.90
12720;DHT22;6424;48.520;11.228;2022-09-16T16:07:07;12.90;99.90
12720;DHT22;6424;48.520;11.228;2022-09-16T16:09:49;12.80;99.90
12720;DHT22;6424;48.520;11.228;2022-09-16T16:12:29;12.80;99.90
12720;DHT22;6424;48.520;11.228;2022-09-16T16:15:12;12.70;99.90
12720;DHT22;6424;48.520;11.228;2022-09-16T16:17:57;12.70;99.90
12720;DHT22;6424;48.520;11.228;2022-09-16T16:20:39;12.70;99.90
12720;DHT22;6424;48.520;11.228;2022-09-16T16:23:05;12.60;99.90
12720;DHT22;6424;48.520;11.228;2022-09-16T16:25:47;12.70;99.90
12720;DHT22;6424;48.520;11.228;2022-09-16T16:28:28;12.70;99.90
12720;DHT22;6424;48.520;11.228;2022-09-16T16:31:14;12.60;99.90
12720;DHT22;6424;48.520;11.228;2022-09-16T16:33:41;12.70;99.90
12720;DHT22;6424;48.520;11.228;2022-09-16T16:36:07;12.70;99.90
12720;DHT22;6424;48.520;11.228;2022-09-16T16:38:48;12.70;99.90
12720;DHT22;6424;48.520;11.228;2022-09-16T16:41:29;12.80;99.90
12720;DHT22;6424;48.520;11.228;2022-09-16T16:44:09;12.90;99.90
12720;DHT22;6424;48.520;11.228;2022-09-16T16:46:52;12.90;99.90
12720;DHT22;6424;48.520;11.228;2022-09-16T16:49:33;12.90;99.90
12720;DHT22;6424;48.520;11.228;2022-09-16T16:52:14;12.80;99.90
12720;DHT22;6424;48.520;11.228;2022-09-16T16:54:55;12.80;99.90
12720;DHT22;6424;48.520;11.228;2022-09-16T16:57:36;12.70;99.90
12720;DHT22;6424;48.520;11.228;2022-09-16T17:00:16;12.60;99.90
12720;DHT22;6424;48.520;11.228;2022-09-16T17:02:58;12.50;99.90
12720;DHT22;6424;48.520;11.228;2022-09-16T17:05:39;12.40;99.90
12720;DHT22;6424;48.520;11.228;2022-09-16T17:08:19;12.30;99.90
12720;DHT22;6424;48.520;11.228;2022-09-16T17:11:17;12.20;99.90
12720;DHT22;6424;48.520;11.228;2022-09-16T17:14:02;12.10;99.90
12720;DHT22;6424;48.520;11.228;2022-09-16T17:16:43;12.00;99.90
12720;DHT22;6424;48.520;11.228;2022-09-16T17:19:26;12.00;99.90
12720;DHT22;6424;48.520;11.228;2022-09-16T17:22:07;12.00;99.90
12720;DHT22;6424;48.520;11.228;2022-09-16T17:24:53;12.00;99.90
12720;DHT22;6424;48.520;11.228;2022-09-16T17:27:34;12.00;99.90
12720;DHT22;6424;48.520;11.228;2022-09-16T17:30:15;12.00;99.90
12720;DHT22;6424;48.520;11.228;2022-09-16T17:32:56;11.90;99.90
12720;DHT22;6424;48.520;11.228;2022-09-16T17:35:37;11.90;99.90
12720;DHT22;6424;48.520;11.228;2022-09-16T17:38:17;11.90;99.90
12720;DHT22;6424;48.520;11.228;2022-09-16T17:41:05;11.90;99.90
12720;DHT22;6424;48.520;11.228;2022-09-16T17:43:46;11.90;99.90
12720;DHT22;6424;48.520;11.228;2022-09-16T17:46:28;12.00;99.90
12720;DHT22;6424;48.520;11.228;2022-09-16T17:49:14;11.90;99.90
12720;DHT22;6424;48.520;11.228;2022-09-16T17:51:55;11.90;99.90
12720;DHT22;6424;48.520;11.228;2022-09-16T17:54:21;11.90;99.90
12720;DHT22;6424;48.520;11.228;2022-09-16T17:57:02;11.90;99.90
12720;DHT22;6424;48.520;11.228;2022-09-16T17:59:42;11.90;99.90
12720;DHT22;6424;48.520;11.228;2022-09-16T18:02:23;11.90;99.90
12720;DHT22;6424;48.520;11.228;2022-09-16T18:05:04;11.80;99.90
12720;DHT22;6424;48.520;11.228;2022-09-16T18:07:30;11.70;99.90
12720;DHT22;6424;48.520;11.228;2022-09-16T18:10:11;11.70;99.90
12720;DHT22;6424;48.520;11.228;2022-09-16T18:12:52;11.70;99.90
12720;DHT22;6424;48.520;11.228;2022-09-16T18:15:33;11.60;99.90
12720;DHT22;6424;48.520;11.228;2022-09-16T18:18:13;11.60;99.90
12720;DHT22;6424;48.520;11.228;2022-09-16T18:20:56;11.50;99.90
12720;DHT22;6424;48.520;11.228;2022-09-16T18:23:37;11.40;99.90
12720;DHT22;6424;48.520;11.228;2022-09-16T18:26:18;11.40;99.90
12720;DHT22;6424;48.520;11.228;2022-09-16T18:29:02;11.30;99.90
12720;DHT22;6424;48.520;11.228;2022-09-16T18:31:47;11.30;99.90
12720;DHT22;6424;48.520;11.228;2022-09-16T18:34:28;11.20;99.90
12720;DHT22;6424;48.520;11.228;2022-09-16T18:37:08;11.20;99.90
12720;DHT22;6424;48.520;11.228;2022-09-16T18:39:49;11.20;99.90
12720;DHT22;6424;48.520;11.228;2022-09-16T18:42:30;11.10;99.90
12720;DHT22;6424;48.520;11.228;2022-09-16T18:44:56;11.10;99.90
12720;DHT22;6424;48.520;11.228;2022-09-16T18:47:36;11.10;99.90
12720;DHT22;6424;48.520;11.228;2022-09-16T18:50:17;11.00;99.90
12720;DHT22;6424;48.520;11.228;2022-09-16T18:52:58;11.00;99.90
12720;DHT22;6424;48.520;11.228;2022-09-16T18:55:39;11.00;99.90
12720;DHT22;6424;48.520;11.228;2022-09-16T18:58:20;10.90;99.90
12720;DHT22;6424;48.520;11.228;2022-09-16T19:01:06;10.90;99.90
12720;DHT22;6424;48.520;11.228;2022-09-16T19:03:34;10.90;99.90
12720;DHT22;6424;48.520;11.228;2022-09-16T19:06:15;10.80;99.90
12720;DHT22;6424;48.520;11.228;2022-09-16T19:08:56;10.80;99.90
12720;DHT22;6424;48.520;11.228;2022-09-16T19:11:38;10.80;99.90
12720;DHT22;6424;48.520;11.228;2022-09-16T19:14:19;10.80;99.90
12720;DHT22;6424;48.520;11.228;2022-09-16T19:17:03;10.80;99.90
12720;DHT22;6424;48.520;11.228;2022-09-16T19:19:44;10.80;99.90
12720;DHT22;6424;48.520;11.228;2022-09-16T19:22:28;10.80;99.90
12720;DHT22;6424;48.520;11.228;2022-09-16T19:25:08;10.80;99.90
12720;DHT22;6424;48.520;11.228;2022-09-16T19:27:49;10.80;99.90
12720;DHT22;6424;48.520;11.228;2022-09-16T19:30:15;10.80;99.90
12720;DHT22;6424;48.520;11.228;2022-09-16T19:32:56;10.70;99.90
12720;DHT22;6424;48.520;11.228;2022-09-16T19:35:37;10.70;99.90
12720;DHT22;6424;48.520;11.228;2022-09-16T19:38:03;10.70;99.90
12720;DHT22;6424;48.520;11.228;2022-09-16T19:40:43;10.70;99.90
12720;DHT22;6424;48.520;11.228;2022-09-16T19:43:09;10.70;99.90
12720;DHT22;6424;48.520;11.228;2022-09-16T19:45:50;10.70;99.90
12720;DHT22;6424;48.520;11.228;2022-09-16T19:48:32;10.70;99.90
12720;DHT22;6424;48.520;11.228;2022-09-16T19:51:16;10.60;99.90
12720;DHT22;6424;48.520;11.228;2022-09-16T19:53:57;10.60;99.90
12720;DHT22;6424;48.520;11.228;2022-09-16T19:56:40;10.70;99.90